createdAt,value
2019-03-04T00:01:44.177Z,2.53
2019-03-04T00:04:51.508Z,2.13
2019-03-04T00:07:59.000Z,1.73
2019-03-04T00:11:15.821Z,1.53
2019-03-04T00:14:32.925Z,1.70
2019-03-04T00:17:40.312Z,1.77
2019-03-04T00:20:47.542Z,1.57
2019-03-04T00:23:53.889Z,1.70
2019-03-04T00:27:01.087Z,2.30
2019-03-04T00:30:08.891Z,2.53
2019-03-04T00:33:16.218Z,2.37
2019-03-04T00:36:23.354Z,2.47
2019-03-04T00:39:30.645Z,1.20
2019-03-04T00:42:37.901Z,1.77
2019-03-04T00:45:45.189Z,1.33
2019-03-04T00:48:52.428Z,2.37
2019-03-04T00:51:59.576Z,1.73
2019-03-04T00:55:06.993Z,2.13
2019-03-04T00:58:14.527Z,1.50
2019-03-04T01:01:21.653Z,1.93
2019-03-04T01:04:28.782Z,1.97
2019-03-04T01:07:36.090Z,2.07
2019-03-04T01:10:43.455Z,2.07
2019-03-04T01:13:50.659Z,1.67
2019-03-04T01:16:57.876Z,2.17
2019-03-04T01:20:04.554Z,1.47
2019-03-04T01:23:11.585Z,1.70
2019-03-04T01:26:18.713Z,1.93
2019-03-04T01:29:25.951Z,1.60
2019-03-04T01:32:33.254Z,1.97
2019-03-04T01:35:40.710Z,1.20
2019-03-04T01:38:47.825Z,1.40
2019-03-04T01:41:55.004Z,1.93
2019-03-04T01:45:02.203Z,1.57
2019-03-04T01:48:09.513Z,1.43
2019-03-04T01:51:16.748Z,2.07
2019-03-04T01:54:24.019Z,2.13
2019-03-04T01:57:31.307Z,1.57
2019-03-04T02:00:39.194Z,1.60
2019-03-04T02:03:55.771Z,1.70
2019-03-04T02:07:12.139Z,1.90
2019-03-04T02:10:19.653Z,1.40
2019-03-04T02:13:36.119Z,1.77
2019-03-04T02:16:43.407Z,2.37
2019-03-04T02:20:00.159Z,1.93
2019-03-04T02:23:16.951Z,1.97
2019-03-04T02:26:34.511Z,1.43
2019-03-04T02:29:41.812Z,2.53
2019-03-04T02:32:49.218Z,1.50
2019-03-04T02:35:56.842Z,2.17
2019-03-04T02:39:05.061Z,1.73
2019-03-04T02:42:12.257Z,1.60
2019-03-04T02:45:19.880Z,1.03
2019-03-04T02:48:27.402Z,1.33
2019-03-04T02:51:34.537Z,1.67
2019-03-04T02:54:51.217Z,1.30
2019-03-04T02:57:58.552Z,1.13
2019-03-04T03:01:15.353Z,1.37
2019-03-04T03:04:31.996Z,1.37
2019-03-04T03:07:39.377Z,1.87
2019-03-04T03:10:56.112Z,1.23
2019-03-04T03:14:12.777Z,1.53
2019-03-04T03:17:20.032Z,0.97
2019-03-04T03:20:36.685Z,1.00
2019-03-04T03:23:43.914Z,1.30
2019-03-04T03:26:51.411Z,0.93
2019-03-04T03:30:13.971Z,1.10
2019-03-04T03:33:21.115Z,0.63
2019-03-04T03:36:28.381Z,0.63
2019-03-04T03:39:35.509Z,0.83
2019-03-04T03:42:42.792Z,1.33
2019-03-04T03:45:59.748Z,0.77
2019-03-04T03:49:16.200Z,0.73
2019-03-04T03:52:23.584Z,0.93
2019-03-04T03:55:40.196Z,0.63
2019-03-04T03:58:47.322Z,0.87
2019-03-04T04:01:54.581Z,0.70
2019-03-04T04:05:01.700Z,0.40
2019-03-04T04:08:08.097Z,0.67
2019-03-04T04:11:15.254Z,0.57
2019-03-04T04:14:21.306Z,0.40
2019-03-04T04:17:28.462Z,0.50
2019-03-04T04:20:35.596Z,0.90
2019-03-04T04:23:43.696Z,1.00
2019-03-04T04:27:00.208Z,0.67
2019-03-04T04:30:08.026Z,0.50
2019-03-04T04:33:15.198Z,0.40
2019-03-04T04:36:22.702Z,0.50
2019-03-04T04:39:29.817Z,1.10
2019-03-04T04:42:37.024Z,0.77
2019-03-04T04:45:45.331Z,0.47
2019-03-04T04:49:01.793Z,0.67
2019-03-04T04:52:09.023Z,0.70
2019-03-04T04:55:16.559Z,0.60
2019-03-04T04:58:33.046Z,0.50
2019-03-04T05:01:40.170Z,0.50
2019-03-04T05:04:47.319Z,0.50
2019-03-04T05:07:54.460Z,0.43
2019-03-04T05:11:11.691Z,0.40
2019-03-04T05:14:28.174Z,0.60
2019-03-04T05:17:35.330Z,0.40
2019-03-04T05:20:42.454Z,0.40
2019-03-04T05:23:49.677Z,0.47
2019-03-04T05:26:56.920Z,0.37
2019-03-04T05:30:04.438Z,0.50
2019-03-04T05:33:20.909Z,0.30
2019-03-04T05:36:28.193Z,0.57
2019-03-04T05:39:35.379Z,0.40
2019-03-04T05:42:42.493Z,0.47
2019-03-04T05:45:49.626Z,0.40
2019-03-04T05:48:56.753Z,0.37
2019-03-04T05:52:03.931Z,0.40
2019-03-04T05:55:12.496Z,0.43
2019-03-04T05:58:19.722Z,0.30
2019-03-04T06:01:34.476Z,0.23
2019-03-04T06:04:43.802Z,0.50
2019-03-04T06:07:58.261Z,0.57
2019-03-04T06:11:16.281Z,0.30
2019-03-04T06:14:23.538Z,0.40
2019-03-04T06:17:30.730Z,0.30
2019-03-04T06:20:37.901Z,0.40
2019-03-04T06:23:45.026Z,0.30
2019-03-04T06:26:52.162Z,0.40
2019-03-04T06:29:59.386Z,0.30
2019-03-04T06:33:06.676Z,0.40
2019-03-04T06:36:13.939Z,0.40
2019-03-04T06:39:30.559Z,0.63
2019-03-04T06:42:37.311Z,0.60
2019-03-04T06:45:44.629Z,0.40
2019-03-04T06:48:51.346Z,0.50
2019-03-04T06:51:58.722Z,0.50
2019-03-04T06:55:27.756Z,0.80
2019-03-04T06:58:46.515Z,0.50
2019-03-04T07:01:57.050Z,0.50
2019-03-04T07:05:37.605Z,0.73
2019-03-04T07:09:14.806Z,0.50
2019-03-04T07:12:31.320Z,0.97
2019-03-04T07:15:38.438Z,0.50
2019-03-04T07:18:45.665Z,0.20
2019-03-04T07:21:52.952Z,0.40
2019-03-04T07:25:09.918Z,0.30
2019-03-04T07:28:26.610Z,0.30
2019-03-04T07:31:33.807Z,0.50
2019-03-04T07:34:50.534Z,0.40
2019-03-04T07:38:23.451Z,0.30
2019-03-04T07:41:42.116Z,0.50
2019-03-04T07:45:00.319Z,0.60
2019-03-04T07:48:16.840Z,0.50
2019-03-04T07:51:23.972Z,0.60
2019-03-04T07:54:31.199Z,0.20
2019-03-04T07:57:38.330Z,0.33
2019-03-04T08:00:45.568Z,0.40
2019-03-04T08:03:52.713Z,0.30
2019-03-04T08:07:37.754Z,0.20
2019-03-04T08:11:20.754Z,0.50
2019-03-04T08:14:28.186Z,0.37
2019-03-04T08:17:44.884Z,0.47
2019-03-04T08:20:52.118Z,0.27
2019-03-04T08:24:08.840Z,0.20
2019-03-04T08:27:16.151Z,0.40
2019-03-04T08:30:32.842Z,0.30
2019-03-04T08:33:49.520Z,0.30
2019-03-04T08:36:56.678Z,0.30
2019-03-04T08:40:04.140Z,0.20
2019-03-04T08:43:20.779Z,0.20
2019-03-04T08:46:27.451Z,0.20
2019-03-04T08:49:34.940Z,0.20
2019-03-04T08:52:42.313Z,0.20
2019-03-04T08:55:49.554Z,0.27
2019-03-04T08:59:12.270Z,0.20
2019-03-04T09:02:19.504Z,0.20
2019-03-04T09:05:26.707Z,0.30
2019-03-04T09:08:33.987Z,0.17
2019-03-04T09:11:41.198Z,0.40
2019-03-04T09:14:57.944Z,0.10
2019-03-04T09:18:14.707Z,0.00
2019-03-04T09:21:31.509Z,0.00
2019-03-04T09:24:48.284Z,0.00
2019-03-04T09:27:55.417Z,0.00
2019-03-04T09:31:02.614Z,0.00
2019-03-04T09:34:09.736Z,0.00
2019-03-04T09:37:17.033Z,0.00
2019-03-04T09:40:24.664Z,0.00
2019-03-04T09:43:41.025Z,0.00
2019-03-04T09:46:48.350Z,0.10
2019-03-04T09:50:06.876Z,0.00
2019-03-04T09:53:23.342Z,0.10
2019-03-04T09:56:30.472Z,0.00
2019-03-04T09:59:37.815Z,0.07
2019-03-04T10:02:46.174Z,0.40
2019-03-04T10:06:08.469Z,0.20
2019-03-04T10:10:11.612Z,0.00
2019-03-04T10:13:40.235Z,0.00
2019-03-04T10:17:22.910Z,0.00
2019-03-04T10:21:01.881Z,0.00
2019-03-04T10:24:20.635Z,0.10
2019-03-04T10:28:07.775Z,0.00
2019-03-04T10:31:29.893Z,0.20
2019-03-04T10:35:14.257Z,0.30
2019-03-04T10:38:37.718Z,0.10
2019-03-04T10:42:30.585Z,0.10
2019-03-04T10:46:11.979Z,0.23
2019-03-04T10:49:19.423Z,0.30
2019-03-04T10:52:26.877Z,0.53
2019-03-04T10:55:41.530Z,0.20
2019-03-04T10:58:52.455Z,0.10
2019-03-04T11:01:59.654Z,0.17
2019-03-04T11:05:06.855Z,0.10
2019-03-04T11:08:14.054Z,0.10
2019-03-04T11:11:29.488Z,0.00
2019-03-04T11:14:30.093Z,0.07
2019-03-04T11:17:37.205Z,0.00
2019-03-04T11:20:44.452Z,0.43
2019-03-04T11:23:51.570Z,0.30
2019-03-04T11:26:58.985Z,0.10
2019-03-04T11:30:16.351Z,0.30
2019-03-04T11:33:23.556Z,0.27
2019-03-04T11:36:30.683Z,0.00
2019-03-04T11:40:01.824Z,0.30
2019-03-04T11:43:18.695Z,0.10
2019-03-04T11:46:25.834Z,0.00
2019-03-04T11:49:33.058Z,0.07
2019-03-04T11:52:40.285Z,0.40
2019-03-04T11:55:47.401Z,0.00
2019-03-04T11:58:54.631Z,0.10
2019-03-04T12:02:01.917Z,0.73
2019-03-04T12:05:10.086Z,0.00
2019-03-04T12:08:17.355Z,0.17
2019-03-04T12:11:24.760Z,0.10
2019-03-04T12:14:32.157Z,0.07
2019-03-04T12:17:39.359Z,0.13
2019-03-04T12:20:47.041Z,0.00
2019-03-04T12:27:19.572Z,0.47
2019-03-04T12:30:36.005Z,0.00
2019-03-04T12:33:43.297Z,0.00
2019-03-04T12:36:51.054Z,0.10
2019-03-04T12:39:58.361Z,0.00
2019-03-04T12:43:05.654Z,0.00
2019-03-04T12:46:12.956Z,0.03
2019-03-04T12:49:20.361Z,0.10
2019-03-04T12:52:27.669Z,0.00
2019-03-04T12:55:34.865Z,0.07
2019-03-04T12:58:42.163Z,0.00
2019-03-04T13:01:49.355Z,0.00
2019-03-04T13:04:56.660Z,0.10
2019-03-04T13:08:04.037Z,0.00
2019-03-04T13:11:11.481Z,0.10
2019-03-04T13:14:27.951Z,0.00
2019-03-04T13:17:35.063Z,0.10
2019-03-04T13:20:42.248Z,0.10
2019-03-04T13:23:49.443Z,0.00
2019-03-04T13:26:56.649Z,0.00
2019-03-04T13:30:04.792Z,0.20
2019-03-04T13:33:12.020Z,0.10
2019-03-04T13:36:19.400Z,0.30
2019-03-04T13:39:26.713Z,0.10
2019-03-04T13:42:33.867Z,0.30
2019-03-04T13:45:41.054Z,0.10
2019-03-04T13:48:49.731Z,0.10
2019-03-04T13:51:57.103Z,0.00
2019-03-04T13:55:04.614Z,0.00
2019-03-04T13:58:11.983Z,0.00
2019-03-04T14:01:28.744Z,0.10
2019-03-04T14:04:45.447Z,0.10
2019-03-04T14:07:52.786Z,0.10
2019-03-04T14:11:00.000Z,0.20
2019-03-04T14:14:16.624Z,0.00
2019-03-04T14:17:23.899Z,0.20
2019-03-04T14:20:31.427Z,0.20
2019-03-04T14:23:47.799Z,0.00
2019-03-04T14:26:55.074Z,0.23
2019-03-04T14:30:02.415Z,0.10
2019-03-04T14:33:18.995Z,0.20
2019-03-04T14:36:26.187Z,0.30
2019-03-04T14:39:33.503Z,0.10
2019-03-04T14:42:50.215Z,0.10
2019-03-04T14:45:57.519Z,0.03
2019-03-04T14:49:14.189Z,0.00
2019-03-04T14:52:21.511Z,0.20
2019-03-04T14:55:38.147Z,0.10
2019-03-04T14:59:09.903Z,0.13
2019-03-04T15:02:13.323Z,0.00
2019-03-04T15:05:20.701Z,0.13
2019-03-04T15:08:37.557Z,0.20
2019-03-04T15:11:53.993Z,0.00
2019-03-04T15:15:11.123Z,0.00
2019-03-04T15:18:27.611Z,0.20
2019-03-04T15:21:34.808Z,0.10
2019-03-04T15:24:51.599Z,0.00
2019-03-04T15:28:13.734Z,0.20
2019-03-04T15:31:20.887Z,0.10
2019-03-04T15:34:28.191Z,0.30
2019-03-04T15:37:35.342Z,0.30
2019-03-04T15:40:41.914Z,0.10
2019-03-04T15:43:49.153Z,0.50
2019-03-04T15:46:56.362Z,0.20
2019-03-04T15:50:13.180Z,0.10
2019-03-04T15:53:29.897Z,0.13
2019-03-04T15:56:37.063Z,0.40
2019-03-04T15:59:44.199Z,0.40
2019-03-04T16:02:51.719Z,0.50
2019-03-04T16:06:09.025Z,0.30
2019-03-04T16:09:26.071Z,1.23
2019-03-04T16:12:42.559Z,0.20
2019-03-04T16:15:49.753Z,0.20
2019-03-04T16:18:56.977Z,0.47
2019-03-04T16:22:04.388Z,0.20
2019-03-04T16:25:12.147Z,0.40
2019-03-04T16:28:23.353Z,0.30
2019-03-04T16:31:29.998Z,0.50
2019-03-04T16:34:37.225Z,0.30
2019-03-04T16:37:44.442Z,0.47
2019-03-04T16:40:51.584Z,0.30
2019-03-04T16:43:58.900Z,0.53
2019-03-04T16:47:07.318Z,1.87
2019-03-04T16:50:14.865Z,0.63
2019-03-04T16:53:22.391Z,0.27
2019-03-04T16:56:29.591Z,0.40
2019-03-04T16:59:37.411Z,0.30
2019-03-04T17:02:53.959Z,0.20
2019-03-04T17:06:10.519Z,0.30
2019-03-04T17:09:19.481Z,0.10
2019-03-04T17:12:26.578Z,0.40
2019-03-04T17:15:33.839Z,0.43
2019-03-04T17:18:50.481Z,0.20
2019-03-04T17:22:07.203Z,0.20
2019-03-04T17:25:23.986Z,0.20
2019-03-04T17:28:40.623Z,0.20
2019-03-04T17:31:47.750Z,0.20
2019-03-04T17:34:55.235Z,0.53
2019-03-04T17:38:11.743Z,0.30
2019-03-04T17:41:18.879Z,0.20
2019-03-04T17:44:26.082Z,0.63
2019-03-04T17:47:33.271Z,0.67
2019-03-04T17:50:40.708Z,0.27
2019-03-04T17:53:57.322Z,0.20
2019-03-04T17:57:14.439Z,0.50
2019-03-04T18:00:31.133Z,1.33
2019-03-04T18:03:55.607Z,0.50
2019-03-04T18:07:02.926Z,0.67
2019-03-04T18:10:19.668Z,0.40
2019-03-04T18:13:26.987Z,0.30
2019-03-04T18:16:43.583Z,0.30
2019-03-04T18:19:50.769Z,0.93
2019-03-04T18:22:58.036Z,0.20
2019-03-04T18:26:18.345Z,0.17
2019-03-04T18:30:09.924Z,0.43
2019-03-04T18:33:54.485Z,0.57
2019-03-04T18:37:37.885Z,0.27
2019-03-04T18:41:27.174Z,0.37
2019-03-04T18:45:18.054Z,0.40
2019-03-04T18:48:56.985Z,0.57
2019-03-04T18:52:04.252Z,0.53
2019-03-04T18:55:11.849Z,0.53
2019-03-04T18:58:19.191Z,0.40
2019-03-04T19:01:26.610Z,0.30
2019-03-04T19:04:33.901Z,0.40
2019-03-04T19:07:41.498Z,0.10
2019-03-04T19:10:58.101Z,0.87
2019-03-04T19:14:14.732Z,0.10
2019-03-04T19:17:22.166Z,0.93
2019-03-04T19:20:39.008Z,0.50
2019-03-04T19:23:55.447Z,0.10
2019-03-04T19:27:02.910Z,0.00
2019-03-04T19:30:19.417Z,0.20
2019-03-04T19:33:26.803Z,0.53
2019-03-04T19:36:43.459Z,0.20
2019-03-04T19:40:00.271Z,0.43
2019-03-04T19:43:16.841Z,0.80
2019-03-04T19:46:34.260Z,0.60
2019-03-04T19:49:50.572Z,0.20
2019-03-04T19:52:57.930Z,0.43
2019-03-04T19:56:05.375Z,0.97
2019-03-04T19:59:21.847Z,0.47
2019-03-04T20:02:38.668Z,0.30
2019-03-04T20:05:55.371Z,0.77
2019-03-04T20:09:02.639Z,1.00
2019-03-04T20:12:19.591Z,0.63
2019-03-04T20:15:26.274Z,0.63
2019-03-04T20:18:33.542Z,0.40
2019-03-04T20:21:40.866Z,0.30
2019-03-04T20:24:48.126Z,0.10
2019-03-04T20:27:55.373Z,0.27
2019-03-04T20:31:02.571Z,0.33
2019-03-04T20:34:09.863Z,0.30
2019-03-04T20:37:27.668Z,0.20
2019-03-04T20:40:34.864Z,0.60
2019-03-04T20:43:42.174Z,0.30
2019-03-04T20:46:49.404Z,0.10
2019-03-04T20:49:56.755Z,0.70
2019-03-04T20:53:04.046Z,0.20
2019-03-04T20:56:11.342Z,0.73
2019-03-04T20:59:18.515Z,0.60
2019-03-04T21:02:25.707Z,0.20
2019-03-04T21:05:33.458Z,0.17
2019-03-04T21:08:40.749Z,0.67
2019-03-04T21:11:48.188Z,0.33
2019-03-04T21:14:55.385Z,0.30
2019-03-04T21:18:02.592Z,0.20
2019-03-04T21:21:09.919Z,0.40
2019-03-04T21:24:17.187Z,0.20
2019-03-04T21:27:24.424Z,1.47
2019-03-04T21:31:23.236Z,0.30
2019-03-04T21:35:02.517Z,0.00
2019-03-04T21:38:09.836Z,0.20
2019-03-04T21:41:52.051Z,0.20
2019-03-04T21:45:19.035Z,0.10
2019-03-04T21:48:34.471Z,0.47
2019-03-04T21:52:20.744Z,0.23
2019-03-04T21:55:54.545Z,0.23
2019-03-04T21:59:01.777Z,0.30
2019-03-04T22:02:13.271Z,0.30
2019-03-04T22:05:29.897Z,0.20
2019-03-04T22:08:37.087Z,0.40
2019-03-04T22:11:53.772Z,0.30
2019-03-04T22:15:01.336Z,0.83
2019-03-04T22:18:17.810Z,0.13
2019-03-04T22:21:25.006Z,0.77
2019-03-04T22:24:32.229Z,0.10
2019-03-04T22:27:39.470Z,0.40
2019-03-04T22:30:56.207Z,0.23
2019-03-04T22:34:03.341Z,0.03
2019-03-04T22:37:10.643Z,0.07
2019-03-04T22:40:18.637Z,0.10
2019-03-04T22:43:25.781Z,0.20
2019-03-04T22:46:33.163Z,0.47
2019-03-04T22:49:40.386Z,0.10
2019-03-04T22:52:47.691Z,0.20
2019-03-04T22:55:55.002Z,0.50
2019-03-04T22:59:02.172Z,0.67
2019-03-04T23:02:09.496Z,0.27
2019-03-04T23:05:26.526Z,1.33
2019-03-04T23:08:43.459Z,0.67
2019-03-04T23:12:14.279Z,0.20
2019-03-04T23:15:22.582Z,0.53
2019-03-04T23:18:29.843Z,0.70
2019-03-04T23:21:37.086Z,1.17
2019-03-04T23:24:44.413Z,0.70
2019-03-04T23:27:51.608Z,0.70
2019-03-04T23:30:59.993Z,0.60
2019-03-04T23:34:07.484Z,0.10
2019-03-04T23:37:14.747Z,0.20
2019-03-04T23:40:21.936Z,0.70
2019-03-04T23:43:29.136Z,0.73
2019-03-04T23:46:36.382Z,0.50
2019-03-04T23:49:43.705Z,0.27
2019-03-04T23:52:51.071Z,0.60
2019-03-04T23:55:58.303Z,0.80
2019-03-04T23:59:05.432Z,0.67
